Time,TemperatureF,DewpointF,PressureIn,WindDirection,WindDirectionDegrees,WindSpeedMPH,WindSpeedGustMPH,Humidity,HourlyPrecipIn,Conditions,Clouds,dailyrainin,SoftwareType,DateUTC
2013-11-23 00:02:00,24.0,13.0,-100.00,North,350,14.0,24.0,64,-99.99,,,-99.99,,2013-11-23 06:02:00,
2013-11-23 00:42:00,23.0,16.0,-100.00,North,350,9.0,16.0,75,-99.99,,,-99.99,,2013-11-23 06:42:00,
2013-11-23 00:53:00,23.0,16.0,-100.00,North,350,9.0,16.0,75,-99.99,,,-99.99,,2013-11-23 06:53:00,
2013-11-23 01:01:00,23.0,16.0,-100.00,North,350,9.0,16.0,75,-99.99,,,-99.99,,2013-11-23 07:01:00,
2013-11-23 01:42:00,23.0,16.0,-100.00,North,350,12.0,21.0,77,-99.99,,,-99.99,,2013-11-23 07:42:00,
2013-11-23 01:52:00,23.0,16.0,-100.00,North,350,12.0,21.0,77,-99.99,,,-99.99,,2013-11-23 07:52:00,
2013-11-23 02:01:00,23.0,16.0,-100.00,North,350,12.0,21.0,77,-99.99,,,-99.99,,2013-11-23 08:01:00,
2013-11-23 02:42:00,20.0,11.0,-100.00,North,350,9.0,21.0,69,-99.99,,,-99.99,,2013-11-23 08:42:00,
2013-11-23 02:52:00,20.0,11.0,-100.00,North,350,9.0,21.0,69,-99.99,,,-99.99,,2013-11-23 08:52:00,
2013-11-23 03:02:00,20.0,11.0,-100.00,North,350,9.0,21.0,69,-99.99,,,-99.99,,2013-11-23 09:02:00,
2013-11-23 03:43:00,19.0,8.0,-100.00,North,350,10.0,19.0,64,-99.99,,,-99.99,,2013-11-23 09:43:00,
2013-11-23 03:54:00,19.0,8.0,-100.00,North,350,10.0,19.0,64,-99.99,,,-99.99,,2013-11-23 09:54:00,
2013-11-23 04:03:00,19.0,8.0,-100.00,North,350,10.0,19.0,64,-99.99,,,-99.99,,2013-11-23 10:03:00,
2013-11-23 04:42:00,16.0,6.0,-100.00,North,350,12.0,23.0,65,-99.99,,,-99.99,,2013-11-23 10:42:00,
2013-11-23 04:52:00,16.0,6.0,-100.00,North,350,12.0,23.0,65,-99.99,,,-99.99,,2013-11-23 10:52:00,
2013-11-23 05:02:00,16.0,6.0,-100.00,North,350,12.0,23.0,65,-99.99,,,-99.99,,2013-11-23 11:02:00,
2013-11-23 05:43:00,13.0,2.0,-100.00,North,350,10.0,23.0,63,-99.99,,,-99.99,,2013-11-23 11:43:00,
2013-11-23 05:52:00,13.0,2.0,-100.00,North,350,10.0,23.0,63,-99.99,,,-99.99,,2013-11-23 11:52:00,
2013-11-23 06:02:00,13.0,2.0,-100.00,North,350,10.0,23.0,63,-99.99,,,-99.99,,2013-11-23 12:02:00,
2013-11-23 06:42:00,11.0,2.0,-100.00,North,350,7.0,17.0,66,-99.99,,,-99.99,,2013-11-23 12:42:00,
2013-11-23 06:52:00,11.0,2.0,-100.00,North,350,7.0,17.0,66,-99.99,,,-99.99,,2013-11-23 12:52:00,
2013-11-23 07:01:00,11.0,2.0,-100.00,North,350,7.0,17.0,66,-99.99,,,-99.99,,2013-11-23 13:01:00,
2013-11-23 07:42:00,10.0,3.0,-100.00,North,350,9.0,18.0,71,-99.99,,,-99.99,,2013-11-23 13:42:00,
2013-11-23 07:52:00,10.0,3.0,-100.00,North,350,9.0,18.0,71,-99.99,,,-99.99,,2013-11-23 13:52:00,
2013-11-23 08:02:00,10.0,3.0,-100.00,North,350,9.0,18.0,71,-99.99,,,-99.99,,2013-11-23 14:02:00,
2013-11-23 08:42:00,11.0,4.0,-100.00,North,350,12.0,21.0,74,-99.99,,,-99.99,,2013-11-23 14:42:00,
2013-11-23 08:52:00,11.0,4.0,-100.00,North,350,12.0,21.0,74,-99.99,,,-99.99,,2013-11-23 14:52:00,
2013-11-23 09:02:00,11.0,4.0,-100.00,North,350,12.0,21.0,74,-99.99,,,-99.99,,2013-11-23 15:02:00,
2013-11-23 10:43:00,14.0,4.0,-100.00,North,350,11.0,18.0,65,-99.99,,,-99.99,,2013-11-23 16:43:00,
2013-11-23 10:53:00,14.0,4.0,-100.00,North,350,11.0,18.0,65,-99.99,,,-99.99,,2013-11-23 16:53:00,
2013-11-23 11:03:00,14.0,4.0,-100.00,North,350,11.0,18.0,65,-99.99,,,-99.99,,2013-11-23 17:03:00,
2013-11-23 11:42:00,15.0,4.0,-100.00,North,350,11.0,19.0,60,-99.99,,,-99.99,,2013-11-23 17:42:00,
2013-11-23 11:52:00,15.0,4.0,-100.00,North,350,11.0,19.0,60,-99.99,,,-99.99,,2013-11-23 17:52:00,
2013-11-23 12:02:00,15.0,4.0,-100.00,North,350,11.0,19.0,60,-99.99,,,-99.99,,2013-11-23 18:02:00,
2013-11-23 12:42:00,16.0,4.0,-100.00,North,350,9.0,19.0,59,-99.99,,,-99.99,,2013-11-23 18:42:00,
2013-11-23 12:52:00,16.0,4.0,-100.00,North,350,9.0,19.0,59,-99.99,,,-99.99,,2013-11-23 18:52:00,
2013-11-23 13:01:00,16.0,4.0,-100.00,North,350,9.0,19.0,59,-99.99,,,-99.99,,2013-11-23 19:01:00,
2013-11-23 13:42:00,16.0,4.0,-100.00,North,350,10.0,19.0,58,-99.99,,,-99.99,,2013-11-23 19:42:00,
2013-11-23 13:52:00,16.0,4.0,-100.00,North,350,10.0,19.0,58,-99.99,,,-99.99,,2013-11-23 19:52:00,
2013-11-23 14:02:00,16.0,4.0,-100.00,North,350,10.0,19.0,58,-99.99,,,-99.99,,2013-11-23 20:02:00,
2013-11-23 14:42:00,17.0,4.0,-100.00,North,350,9.0,16.0,55,-99.99,,,-99.99,,2013-11-23 20:42:00,
2013-11-23 14:53:00,17.0,4.0,-100.00,North,350,9.0,16.0,55,-99.99,,,-99.99,,2013-11-23 20:53:00,
2013-11-23 15:02:00,17.0,4.0,-100.00,North,350,9.0,16.0,55,-99.99,,,-99.99,,2013-11-23 21:02:00,
2013-11-23 15:43:00,17.0,4.0,-100.00,North,350,10.0,16.0,56,-99.99,,,-99.99,,2013-11-23 21:43:00,
2013-11-23 15:53:00,17.0,4.0,-100.00,North,350,10.0,16.0,56,-99.99,,,-99.99,,2013-11-23 21:53:00,
2013-11-23 16:03:00,17.0,4.0,-100.00,North,350,10.0,16.0,56,-99.99,,,-99.99,,2013-11-23 22:03:00,
2013-11-23 16:43:00,15.0,3.0,-100.00,North,350,11.0,21.0,57,-99.99,,,-99.99,,2013-11-23 22:43:00,
2013-11-23 16:53:00,15.0,3.0,-100.00,North,350,11.0,21.0,57,-99.99,,,-99.99,,2013-11-23 22:53:00,
2013-11-23 17:02:00,15.0,3.0,-100.00,North,350,11.0,21.0,57,-99.99,,,-99.99,,2013-11-23 23:02:00,
2013-11-23 17:42:00,14.0,2.0,-100.00,North,350,5.0,9.0,58,-99.99,,,-99.99,,2013-11-23 23:42:00,
2013-11-23 17:53:00,14.0,2.0,-100.00,North,350,5.0,9.0,58,-99.99,,,-99.99,,2013-11-23 23:53:00,
2013-11-23 18:02:00,14.0,2.0,-100.00,North,350,5.0,9.0,58,-99.99,,,-99.99,,2013-11-24 00:02:00,
2013-11-23 18:42:00,13.0,3.0,-100.00,North,350,5.0,8.0,64,-99.99,,,-99.99,,2013-11-24 00:42:00,
2013-11-23 18:52:00,13.0,3.0,-100.00,North,350,5.0,8.0,64,-99.99,,,-99.99,,2013-11-24 00:52:00,
2013-11-23 19:01:00,13.0,3.0,-100.00,North,350,5.0,8.0,64,-99.99,,,-99.99,,2013-11-24 01:01:00,
2013-11-23 19:42:00,12.0,3.0,-100.00,North,350,2.0,5.0,67,-99.99,,,-99.99,,2013-11-24 01:42:00,
2013-11-23 19:53:00,12.0,3.0,-100.00,North,350,2.0,5.0,67,-99.99,,,-99.99,,2013-11-24 01:53:00,
2013-11-23 20:01:00,12.0,3.0,-100.00,North,350,2.0,5.0,67,-99.99,,,-99.99,,2013-11-24 02:01:00,
2013-11-23 20:42:00,10.0,2.0,-100.00,North,350,2.0,4.0,71,-99.99,,,-99.99,,2013-11-24 02:42:00,
2013-11-23 20:52:00,10.0,2.0,-100.00,North,350,2.0,4.0,71,-99.99,,,-99.99,,2013-11-24 02:52:00,
2013-11-23 21:02:00,10.0,2.0,-100.00,North,350,2.0,4.0,71,-99.99,,,-99.99,,2013-11-24 03:02:00,
2013-11-23 21:43:00,9.0,3.0,-100.00,North,350,2.0,5.0,76,-99.99,,,-99.99,,2013-11-24 03:43:00,
2013-11-23 21:53:00,9.0,3.0,-100.00,North,350,2.0,5.0,76,-99.99,,,-99.99,,2013-11-24 03:53:00,
2013-11-23 22:02:00,-999.0,-99.9,-100.00,North,350,2.0,5.0,-999,-99.99,,,-99.99,,2013-11-24 04:02:00,
2013-11-23 22:43:00,9.0,4.0,-100.00,North,350,2.0,4.0,77,-99.99,,,-99.99,,2013-11-24 04:43:00,
2013-11-23 22:53:00,9.0,4.0,-100.00,North,350,2.0,4.0,77,-99.99,,,-99.99,,2013-11-24 04:53:00,
2013-11-23 23:03:00,9.0,4.0,-100.00,North,350,2.0,4.0,77,-99.99,,,-99.99,,2013-11-24 05:03:00,
2013-11-23 23:43:00,9.0,4.0,-100.00,NNW,345,2.0,6.0,79,-99.99,,,-99.99,,2013-11-24 05:43:00,
2013-11-23 23:53:00,9.0,4.0,-100.00,NNW,345,2.0,6.0,79,-99.99,,,-99.99,,2013-11-24 05:53:00,